createdAt,value
2017-10-03T00:02:16.162Z,99038.61
2017-10-03T00:06:20.490Z,99045.02
2017-10-03T00:10:24.703Z,99045.02
2017-10-03T00:14:28.446Z,99035.48
2017-10-03T00:18:31.995Z,99035.63
2017-10-03T00:22:35.751Z,99039.85
2017-10-03T00:26:39.963Z,99034.26
2017-10-03T00:30:43.444Z,99015.72
2017-10-03T00:34:46.902Z,99013.95
2017-10-03T00:38:51.399Z,99012.72
2017-10-03T00:42:54.855Z,99007.82
2017-10-03T00:46:58.345Z,99007.82
2017-10-03T00:51:02.547Z,98996.10
2017-10-03T00:55:06.383Z,98992.97
2017-10-03T00:59:10.597Z,98989.69
2017-10-03T01:03:14.888Z,98984.23
2017-10-03T01:07:18.347Z,98992.27
2017-10-03T01:11:22.880Z,98989.95
2017-10-03T01:15:26.347Z,98987.77
2017-10-03T01:19:30.207Z,98976.86
2017-10-03T01:23:33.746Z,98968.27
2017-10-03T01:27:37.524Z,98971.55
2017-10-03T01:31:41.747Z,98963.38
2017-10-03T01:35:45.999Z,98966.09
2017-10-03T01:39:49.456Z,98955.88
2017-10-03T01:43:52.933Z,98957.11
2017-10-03T01:47:56.390Z,98949.47
2017-10-03T01:52:00.659Z,98946.75
2017-10-03T01:56:04.107Z,98944.57
2017-10-03T02:00:07.583Z,98941.44
2017-10-03T02:04:11.030Z,98949.21
2017-10-03T02:08:15.676Z,98969.25
2017-10-03T02:12:19.897Z,98974.70
2017-10-03T02:16:24.435Z,98976.07
2017-10-03T02:20:28.644Z,98970.73
2017-10-03T02:24:32.909Z,98964.32
2017-10-03T02:28:36.367Z,98961.33
2017-10-03T02:32:39.885Z,98947.55
2017-10-03T02:36:44.102Z,98954.52
2017-10-03T02:40:47.583Z,98950.97
2017-10-03T02:44:51.030Z,98950.16
2017-10-03T02:48:55.276Z,98962.43
2017-10-03T02:52:58.718Z,98953.98
2017-10-03T02:57:02.166Z,98952.08
2017-10-03T03:01:06.382Z,98944.84
2017-10-03T03:05:10.229Z,98947.72
2017-10-03T03:09:13.680Z,98944.59
2017-10-03T03:13:17.436Z,98937.77
2017-10-03T03:17:21.651Z,98941.02
2017-10-03T03:21:25.907Z,98943.74
2017-10-03T03:25:29.410Z,98944.30
2017-10-03T03:29:32.896Z,98959.84
2017-10-03T03:33:37.109Z,98960.66
2017-10-03T03:37:40.942Z,98962.16
2017-10-03T03:41:45.154Z,98946.75
2017-10-03T03:45:48.977Z,98942.27
2017-10-03T03:49:53.199Z,98949.89
2017-10-03T03:53:57.748Z,98944.98
2017-10-03T03:58:01.212Z,98961.89
2017-10-03T04:02:05.063Z,98966.13
2017-10-03T04:06:09.290Z,98981.13
2017-10-03T04:10:13.927Z,98972.53
2017-10-03T04:14:18.142Z,98965.86
2017-10-03T04:18:22.474Z,98960.81
2017-10-03T04:22:26.691Z,98966.27
2017-10-03T04:26:30.934Z,98963.55
2017-10-03T04:30:35.155Z,98957.80
2017-10-03T04:34:39.788Z,98975.92
2017-10-03T04:38:44.016Z,98976.06
2017-10-03T04:42:48.263Z,98982.06
2017-10-03T04:46:51.742Z,98986.16
2017-10-03T04:50:55.992Z,98980.30
2017-10-03T04:54:59.445Z,98981.66
2017-10-03T04:59:03.303Z,98987.66
2017-10-03T05:03:06.755Z,98980.44
2017-10-03T05:07:10.287Z,98974.72
2017-10-03T05:11:13.735Z,98981.68
2017-10-03T05:15:17.548Z,98989.86
2017-10-03T05:19:20.997Z,98993.10
2017-10-03T05:23:24.742Z,98993.55
2017-10-03T05:27:28.962Z,98999.00
2017-10-03T05:31:32.442Z,99009.61
2017-10-03T05:35:35.895Z,99005.11
2017-10-03T05:39:40.256Z,99016.42
2017-10-03T05:43:43.710Z,99019.70
2017-10-03T05:47:47.182Z,99022.83
2017-10-03T05:51:50.633Z,99023.64
2017-10-03T05:55:54.897Z,99037.16
2017-10-03T05:59:58.351Z,99044.23
2017-10-03T06:04:01.831Z,99051.17
2017-10-03T06:08:05.299Z,99058.67
2017-10-03T06:12:08.778Z,99052.00
2017-10-03T06:16:12.223Z,99062.63
2017-10-03T06:20:15.756Z,99069.85
2017-10-03T06:24:19.217Z,99066.88
2017-10-03T06:28:23.022Z,99077.91
2017-10-03T06:32:27.243Z,99075.98
2017-10-03T06:36:30.768Z,99072.72
2017-10-03T06:40:35.132Z,99069.44
2017-10-03T06:44:38.603Z,99081.16
2017-10-03T06:48:42.826Z,99081.45
2017-10-03T06:52:47.072Z,99077.77
2017-10-03T06:56:50.507Z,99078.59
2017-10-03T07:00:54.254Z,99098.08
2017-10-03T07:04:57.704Z,99094.95
2017-10-03T07:09:01.174Z,99104.76
2017-10-03T07:13:05.403Z,99108.84
2017-10-03T07:17:09.648Z,99121.66
2017-10-03T07:21:13.099Z,99125.21
2017-10-03T07:25:16.583Z,99135.16
2017-10-03T07:29:20.050Z,99145.92
2017-10-03T07:33:24.568Z,99154.92
2017-10-03T07:37:28.037Z,99156.02
2017-10-03T07:41:31.521Z,99154.11
2017-10-03T07:45:34.965Z,99163.80
2017-10-03T07:49:38.551Z,99176.73
2017-10-03T07:53:42.007Z,99193.51
2017-10-03T07:57:45.477Z,99195.42
2017-10-03T08:01:48.934Z,99205.92
2017-10-03T08:05:53.170Z,99220.10
2017-10-03T08:09:57.531Z,99233.33
2017-10-03T08:14:01.019Z,99234.28
2017-10-03T08:18:04.467Z,99249.42
2017-10-03T08:22:07.957Z,99256.79
2017-10-03T08:26:11.414Z,99250.52
2017-10-03T08:30:15.679Z,99262.79
2017-10-03T08:34:19.134Z,99270.83
2017-10-03T08:38:22.622Z,99276.82
2017-10-03T08:42:26.085Z,99284.45
2017-10-03T08:46:29.882Z,99296.06
2017-10-03T08:50:34.105Z,99297.97
2017-10-03T08:54:38.645Z,99304.81
2017-10-03T08:58:42.109Z,99300.98
2017-10-03T09:02:45.596Z,99315.30
2017-10-03T09:06:49.067Z,99320.62
2017-10-03T09:10:53.326Z,99327.73
2017-10-03T09:14:56.781Z,99336.19
2017-10-03T09:19:00.263Z,99340.55
2017-10-03T09:23:03.726Z,99341.09
2017-10-03T09:27:07.641Z,99351.04
2017-10-03T09:31:11.095Z,99342.75
2017-10-03T09:35:14.588Z,99349.16
2017-10-03T09:39:18.042Z,99361.02
2017-10-03T09:43:22.292Z,99372.45
2017-10-03T09:47:25.750Z,99377.64
2017-10-03T09:51:29.235Z,99373.69
2017-10-03T09:55:32.698Z,99383.78
2017-10-03T09:59:37.068Z,99383.25
2017-10-03T10:03:40.584Z,99394.03
2017-10-03T10:07:44.061Z,99394.03
2017-10-03T10:11:47.515Z,99397.16
2017-10-03T10:15:51.362Z,99399.78
2017-10-03T10:19:55.571Z,99403.87
2017-10-03T10:23:59.059Z,99408.20
2017-10-03T10:28:02.523Z,99412.70
2017-10-03T10:32:05.994Z,99419.66
2017-10-03T10:36:10.215Z,99418.98
2017-10-03T10:40:13.758Z,99438.22
2017-10-03T10:44:17.214Z,99440.64
2017-10-03T10:48:20.950Z,99447.20
2017-10-03T10:52:24.407Z,99449.66
2017-10-03T10:56:28.186Z,99451.02
2017-10-03T11:00:32.401Z,99464.66
2017-10-03T11:04:36.647Z,99461.38
2017-10-03T11:08:40.795Z,99464.92
2017-10-03T11:12:44.572Z,99463.31
2017-10-03T11:16:48.123Z,99467.68
2017-10-03T11:20:51.879Z,99466.45
2017-10-03T11:24:55.334Z,99479.41
2017-10-03T11:28:58.819Z,99476.13
2017-10-03T11:33:03.029Z,99479.27
2017-10-03T11:37:07.572Z,99490.86
2017-10-03T11:41:11.804Z,99489.09
2017-10-03T11:45:15.287Z,99492.77
2017-10-03T11:49:18.748Z,99490.45
2017-10-03T11:53:22.234Z,99483.09
2017-10-03T11:57:25.682Z,99485.27
2017-10-03T12:01:29.162Z,99486.22
2017-10-03T12:05:32.659Z,99486.12
2017-10-03T12:09:36.143Z,99499.21
2017-10-03T12:13:40.364Z,99499.89
2017-10-03T12:17:44.603Z,99512.44
2017-10-03T12:21:48.841Z,99521.03
2017-10-03T12:25:52.311Z,99517.34
2017-10-03T12:29:55.758Z,99520.24
2017-10-03T12:33:59.545Z,99530.61
2017-10-03T12:38:03.767Z,99532.79
2017-10-03T12:42:08.014Z,99534.56
2017-10-03T12:46:11.468Z,99536.88
2017-10-03T12:50:14.948Z,99531.84
2017-10-03T12:54:18.398Z,99534.16
2017-10-03T12:58:21.875Z,99534.84
2017-10-03T13:02:25.322Z,99537.97
2017-10-03T13:06:29.160Z,99527.47
2017-10-03T13:10:32.615Z,99539.75
2017-10-03T13:14:36.476Z,99537.42
2017-10-03T13:18:40.700Z,99544.11
2017-10-03T13:22:44.515Z,99556.39
2017-10-03T13:26:48.763Z,99559.26
2017-10-03T13:30:52.555Z,99565.80
2017-10-03T13:34:56.777Z,99568.64
2017-10-03T13:39:01.290Z,99568.23
2017-10-03T13:43:04.754Z,99579.69
2017-10-03T13:47:08.503Z,99566.05
2017-10-03T13:51:11.951Z,99571.50
2017-10-03T13:55:15.755Z,99573.17
2017-10-03T13:59:19.974Z,99573.17
2017-10-03T14:03:24.523Z,99581.63
2017-10-03T14:07:27.982Z,99579.72
2017-10-03T14:11:31.739Z,99574.95
2017-10-03T14:15:35.935Z,99584.08
2017-10-03T14:19:39.771Z,99579.58
2017-10-03T14:23:43.995Z,99584.49
2017-10-03T14:27:48.541Z,99587.77
2017-10-03T14:31:51.995Z,99587.36
2017-10-03T14:35:55.751Z,99586.00
2017-10-03T14:39:59.214Z,99597.86
2017-10-03T14:44:03.069Z,99592.55
2017-10-03T14:48:07.299Z,99609.56
2017-10-03T14:52:11.934Z,99608.33
2017-10-03T14:56:16.150Z,99618.84
2017-10-03T15:00:20.708Z,99612.02
2017-10-03T15:04:24.234Z,99619.93
2017-10-03T15:08:28.007Z,99622.11
2017-10-03T15:12:32.241Z,99621.16
2017-10-03T15:16:36.771Z,99624.02
2017-10-03T15:20:41.938Z,99628.66
2017-10-03T15:24:45.847Z,99644.48
2017-10-03T15:28:49.307Z,99650.34
2017-10-03T15:32:53.069Z,99659.48
2017-10-03T15:36:56.524Z,99665.35
2017-10-03T15:41:00.391Z,99680.91
2017-10-03T15:45:03.848Z,99689.63
2017-10-03T15:49:07.703Z,99695.09
2017-10-03T15:53:11.914Z,99701.09
2017-10-03T15:57:15.740Z,99708.86
2017-10-03T16:01:19.955Z,99707.09
2017-10-03T16:05:23.786Z,99713.50
2017-10-03T16:09:27.997Z,99711.19
2017-10-03T16:13:31.823Z,99729.70
2017-10-03T16:17:36.038Z,99734.20
2017-10-03T16:21:40.687Z,99733.92
2017-10-03T16:25:44.914Z,99740.06
2017-10-03T16:29:49.498Z,99748.79
2017-10-03T16:33:52.952Z,99748.48
2017-10-03T16:37:57.487Z,99757.08
2017-10-03T16:42:01.706Z,99759.94
2017-10-03T16:46:05.990Z,99777.80
2017-10-03T16:50:09.444Z,99782.31
2017-10-03T16:54:13.704Z,99782.85
2017-10-03T16:58:17.146Z,99787.89
2017-10-03T17:02:20.654Z,99773.44
2017-10-03T17:06:24.112Z,99771.80
2017-10-03T17:10:27.592Z,99779.16
2017-10-03T17:14:31.816Z,99781.45
2017-10-03T17:18:36.084Z,99781.58
2017-10-03T17:22:39.535Z,99799.03
2017-10-03T17:26:43.023Z,99797.27
2017-10-03T17:30:46.495Z,99802.98
2017-10-03T17:34:49.976Z,99805.71
2017-10-03T17:38:54.212Z,99821.77
2017-10-03T17:42:58.020Z,99821.91
2017-10-03T17:47:02.230Z,99828.72
2017-10-03T17:51:06.509Z,99833.77
2017-10-03T17:55:09.984Z,99830.76
2017-10-03T17:59:13.471Z,99852.58
2017-10-03T18:03:17.695Z,99859.53
2017-10-03T18:07:21.166Z,99867.17
2017-10-03T18:11:24.610Z,99871.39
2017-10-03T18:15:29.159Z,99877.39
2017-10-03T18:19:33.522Z,99881.48
2017-10-03T18:23:37.280Z,99894.71
2017-10-03T18:27:40.736Z,99896.17
2017-10-03T18:31:44.210Z,99909.30
2017-10-03T18:35:48.439Z,99916.22
2017-10-03T18:39:52.691Z,99912.67
2017-10-03T18:43:56.149Z,99919.08
2017-10-03T18:47:59.953Z,99923.30
2017-10-03T18:52:03.410Z,99925.20
2017-10-03T18:56:06.887Z,99923.30
2017-10-03T19:00:11.118Z,99939.67
2017-10-03T19:04:15.366Z,99925.20
2017-10-03T19:08:18.825Z,99933.52
2017-10-03T19:12:22.396Z,99937.74
2017-10-03T19:16:25.874Z,99942.38
2017-10-03T19:20:30.127Z,99941.42
2017-10-03T19:24:33.582Z,99956.52
2017-10-03T19:28:37.349Z,99967.02
2017-10-03T19:32:40.822Z,99971.78
2017-10-03T19:36:45.067Z,99984.88
2017-10-03T19:40:48.523Z,99989.92
2017-10-03T19:44:52.377Z,99985.97
2017-10-03T19:48:56.594Z,99976.42
2017-10-03T19:53:00.847Z,99985.14
2017-10-03T19:57:04.316Z,99979.28
2017-10-03T20:01:08.559Z,99993.87
2017-10-03T20:05:12.778Z,100000.14
2017-10-03T20:09:17.011Z,99984.45
2017-10-03T20:13:21.227Z,99985.37
2017-10-03T20:17:25.479Z,99991.37
2017-10-03T20:21:28.931Z,99998.73
2017-10-03T20:25:32.694Z,99999.27
2017-10-03T20:29:36.159Z,100004.72
2017-10-03T20:33:39.642Z,100013.31
2017-10-03T20:37:43.101Z,100014.40
2017-10-03T20:41:47.347Z,100015.62
2017-10-03T20:45:50.808Z,100024.48
2017-10-03T20:49:54.646Z,100030.89
2017-10-03T20:53:58.866Z,100044.11
2017-10-03T20:58:03.127Z,100035.11
2017-10-03T21:02:06.588Z,100040.16
2017-10-03T21:06:10.064Z,100036.16
2017-10-03T21:10:13.522Z,100038.89
2017-10-03T21:14:17.789Z,100035.34
2017-10-03T21:18:21.256Z,100036.47
2017-10-03T21:22:25.783Z,100037.91
2017-10-03T21:26:30.002Z,100035.47
2017-10-03T21:30:34.425Z,100039.81
2017-10-03T21:34:37.989Z,100034.46
2017-10-03T21:38:41.474Z,100030.09
2017-10-03T21:43:02.659Z,100037.45
2017-10-03T21:47:06.141Z,100042.21
2017-10-03T21:51:09.613Z,100031.30
2017-10-03T21:55:13.410Z,100030.61
2017-10-03T21:59:17.636Z,100037.84
2017-10-03T22:03:21.894Z,100032.92
2017-10-03T22:07:25.366Z,100029.34
2017-10-03T22:11:29.619Z,100026.75
2017-10-03T22:15:33.167Z,100022.66
2017-10-03T22:19:36.654Z,100029.60
2017-10-03T22:23:40.126Z,100015.56
2017-10-03T22:27:43.603Z,100017.47
2017-10-03T22:31:47.055Z,100023.45
2017-10-03T22:35:50.856Z,100029.45
2017-10-03T22:39:54.357Z,100037.32
2017-10-03T22:43:57.852Z,100040.36
2017-10-03T22:48:02.156Z,100036.91
2017-10-03T22:52:11.535Z,100029.99
2017-10-03T22:56:15.763Z,100039.64
2017-10-03T23:00:20.336Z,100037.86
2017-10-03T23:04:23.798Z,100039.23
2017-10-03T23:08:28.107Z,100039.77
2017-10-03T23:12:32.335Z,100037.58
2017-10-03T23:16:35.811Z,100030.35
2017-10-03T23:20:39.269Z,100040.02
2017-10-03T23:24:43.537Z,100036.34
2017-10-03T23:28:46.987Z,100042.34
2017-10-03T23:32:51.255Z,100046.97
2017-10-03T23:36:54.695Z,100053.38
2017-10-03T23:40:58.159Z,100061.69
2017-10-03T23:45:01.605Z,100055.79
2017-10-03T23:49:05.087Z,100070.38
2017-10-03T23:53:08.607Z,100067.23
2017-10-03T23:57:12.087Z,100046.78
